Etusivu
METAR-TAF:

METAR-TAF

Lentoasemat :

Bainbridge, Georgia, Yhdysvallat

Leveyspiiri: 30-58N, Pituuspiiri: 084-38W, korkeus merenpinnasta: 43 m

Tämänhetkinen sää

Tämä raportti tehtiin 33 minuuttia sitten, kello 13.50 UTC
Tuuli 12 kn idästä puuskistuen 17 kn:hen
Lämpötila 21°C
Kosteus 94%
Ilmanpaine 1006 hPa
Näkyvyys: 8.0 km
Pilvistä 1500 ft:n korkeudessa
heikkoa sadetta, utua

METAR: KBGE 191350Z AUTO 10012G17KT 5SM -RA BR OVC015 21/20 A2971 RMK AO2 T02150202

Aika: 10:23 (14:23 UTC)


TAF: puuttuu

Säähavainnot ja -ennusteet yli 4000 lentoasemalta (METAR- ja TAF-raportit).

Käytössä olevat sääasemat on merkitty karttaan keltaisilla ja punaisilla pisteillä.

Aseta hiiri pisteen päälle nähdäksesi sääaseman nimen.

Klikkaa sitten nähdäksesi säähavainnot ja -ennusteet.

Kartan vaihtaminen: klikkaa mustalla rastilla varustettuja vihreitä pisteitä, niin voit zoomata sisään; viivalla varustettua vihreää pistettä, niin voit zoomata ulos tai vihreitä nuolia, niin pääset viereisille kartoille.


METAR-TAF: